sensor_id;sensor_type;location;lat;lon;timestamp;pressure;altitude;pressure_sealevel;temperature;humidity
64862;BME280;62652;42.274;-71.436;2023-07-16T00:00:00;100710.0;;;28.388888888888886;100.0
64862;BME280;62652;42.274;-71.436;2023-07-16T00:01:01;100710.0;;;28.388888888888886;100.0
64862;BME280;62652;42.274;-71.436;2023-07-16T00:02:01;100710.0;;;28.388888888888886;100.0
64862;BME280;62652;42.274;-71.436;2023-07-16T00:03:00;100700.0;;;28.388888888888886;100.0
64862;BME280;62652;42.274;-71.436;2023-07-16T00:04:00;100710.0;;;28.277777777777782;100.0
64862;BME280;62652;42.274;-71.436;2023-07-16T00:05:00;100710.0;;;28.277777777777782;100.0
64862;BME280;62652;42.274;-71.436;2023-07-16T00:06:00;100710.0;;;28.277777777777782;100.0
64862;BME280;62652;42.274;-71.436;2023-07-16T00:07:01;100710.0;;;28.22222222222222;100.0
64862;BME280;62652;42.274;-71.436;2023-07-16T00:08:01;100710.0;;;28.22222222222222;100.0
64862;BME280;62652;42.274;-71.436;2023-07-16T00:09:01;100710.0;;;28.22222222222222;100.0
64862;BME280;62652;42.274;-71.436;2023-07-16T00:10:01;100710.0;;;28.22222222222222;100.0
64862;BME280;62652;42.274;-71.436;2023-07-16T00:11:00;100710.0;;;28.22222222222222;100.0
64862;BME280;62652;42.274;-71.436;2023-07-16T00:12:01;100720.0;;;28.22222222222222;100.0
64862;BME280;62652;42.274;-71.436;2023-07-16T00:13:01;100720.0;;;28.22222222222222;100.0
64862;BME280;62652;42.274;-71.436;2023-07-16T00:14:00;100720.0;;;28.111111111111107;100.0
64862;BME280;62652;42.274;-71.436;2023-07-16T00:15:00;100720.0;;;28.111111111111107;100.0
64862;BME280;62652;42.274;-71.436;2023-07-16T00:16:01;100720.0;;;28.111111111111107;100.0
64862;BME280;62652;42.274;-71.436;2023-07-16T00:17:00;100720.0;;;28.111111111111107;100.0
64862;BME280;62652;42.274;-71.436;2023-07-16T00:18:00;100720.0;;;28.111111111111107;100.0
64862;BME280;62652;42.274;-71.436;2023-07-16T00:19:00;100720.0;;;28.000000000000004;100.0
64862;BME280;62652;42.274;-71.436;2023-07-16T00:20:01;100730.0;;;28.000000000000004;100.0
64862;BME280;62652;42.274;-71.436;2023-07-16T00:21:01;100720.0;;;28.000000000000004;100.0
64862;BME280;62652;42.274;-71.436;2023-07-16T00:22:01;100720.0;;;28.000000000000004;100.0
64862;BME280;62652;42.274;-71.436;2023-07-16T00:23:01;100720.0;;;28.000000000000004;100.0
64862;BME280;62652;42.274;-71.436;2023-07-16T00:24:00;100720.0;;;28.000000000000004;100.0
64862;BME280;62652;42.274;-71.436;2023-07-16T00:25:01;100730.0;;;28.000000000000004;100.0
64862;BME280;62652;42.274;-71.436;2023-07-16T00:26:00;100720.0;;;28.000000000000004;100.0
64862;BME280;62652;42.274;-71.436;2023-07-16T00:27:01;100720.0;;;27.88888888888889;100.0
64862;BME280;62652;42.274;-71.436;2023-07-16T00:28:00;100730.0;;;27.88888888888889;100.0
64862;BME280;62652;42.274;-71.436;2023-07-16T00:29:00;100730.0;;;27.88888888888889;100.0
64862;BME280;62652;42.274;-71.436;2023-07-16T00:30:01;100720.0;;;27.88888888888889;100.0
64862;BME280;62652;42.274;-71.436;2023-07-16T00:31:01;100730.0;;;27.77777777777778;100.0
64862;BME280;62652;42.274;-71.436;2023-07-16T00:32:01;100730.0;;;27.77777777777778;100.0
64862;BME280;62652;42.274;-71.436;2023-07-16T00:33:00;100730.0;;;27.77777777777778;100.0
64862;BME280;62652;42.274;-71.436;2023-07-16T00:34:01;100730.0;;;27.77777777777778;100.0
64862;BME280;62652;42.274;-71.436;2023-07-16T00:35:01;100730.0;;;27.77777777777778;100.0
64862;BME280;62652;42.274;-71.436;2023-07-16T00:36:01;100730.0;;;27.722222222222225;100.0
64862;BME280;62652;42.274;-71.436;2023-07-16T00:37:01;100730.0;;;27.722222222222225;100.0
64862;BME280;62652;42.274;-71.436;2023-07-16T00:38:00;100730.0;;;27.722222222222225;100.0
64862;BME280;62652;42.274;-71.436;2023-07-16T00:39:01;100730.0;;;27.722222222222225;100.0
64862;BME280;62652;42.274;-71.436;2023-07-16T00:40:01;100730.0;;;27.722222222222225;100.0
64862;BME280;62652;42.274;-71.436;2023-07-16T00:41:00;100730.0;;;27.722222222222225;100.0
64862;BME280;62652;42.274;-71.436;2023-07-16T00:42:01;100730.0;;;27.61111111111111;100.0
64862;BME280;62652;42.274;-71.436;2023-07-16T00:43:00;100730.0;;;27.722222222222225;100.0
64862;BME280;62652;42.274;-71.436;2023-07-16T00:44:01;100740.0;;;27.61111111111111;100.0
64862;BME280;62652;42.274;-71.436;2023-07-16T00:45:00;100730.0;;;27.61111111111111;100.0
64862;BME280;62652;42.274;-71.436;2023-07-16T00:46:01;100730.0;;;27.61111111111111;100.0
64862;BME280;62652;42.274;-71.436;2023-07-16T00:47:01;100730.0;;;27.61111111111111;100.0
64862;BME280;62652;42.274;-71.436;2023-07-16T00:48:00;100730.0;;;27.61111111111111;100.0
64862;BME280;62652;42.274;-71.436;2023-07-16T00:49:01;100730.0;;;27.61111111111111;100.0
64862;BME280;62652;42.274;-71.436;2023-07-16T00:50:01;100730.0;;;27.61111111111111;100.0
64862;BME280;62652;42.274;-71.436;2023-07-16T00:51:01;100730.0;;;27.61111111111111;100.0
64862;BME280;62652;42.274;-71.436;2023-07-16T00:52:01;100730.0;;;27.61111111111111;100.0
64862;BME280;62652;42.274;-71.436;2023-07-16T00:53:01;100730.0;;;27.61111111111111;100.0
64862;BME280;62652;42.274;-71.436;2023-07-16T00:54:01;100720.0;;;27.61111111111111;100.0
64862;BME280;62652;42.274;-71.436;2023-07-16T00:55:00;100720.0;;;27.5;100.0
64862;BME280;62652;42.274;-71.436;2023-07-16T00:56:01;100730.0;;;27.61111111111111;100.0
64862;BME280;62652;42.274;-71.436;2023-07-16T00:57:01;100720.0;;;27.61111111111111;100.0
64862;BME280;62652;42.274;-71.436;2023-07-16T00:58:02;100720.0;;;27.61111111111111;100.0
64862;BME280;62652;42.274;-71.436;2023-07-16T00:59:00;100730.0;;;27.61111111111111;100.0
64862;BME280;62652;42.274;-71.436;2023-07-16T01:00:01;100720.0;;;27.61111111111111;100.0
64862;BME280;62652;42.274;-71.436;2023-07-16T01:01:01;100730.0;;;27.61111111111111;100.0
64862;BME280;62652;42.274;-71.436;2023-07-16T01:02:00;100730.0;;;27.5;100.0
64862;BME280;62652;42.274;-71.436;2023-07-16T01:03:01;100730.0;;;27.5;100.0
64862;BME280;62652;42.274;-71.436;2023-07-16T01:04:01;100730.0;;;27.5;100.0
64862;BME280;62652;42.274;-71.436;2023-07-16T01:05:01;100730.0;;;27.5;100.0
64862;BME280;62652;42.274;-71.436;2023-07-16T01:06:04;100730.0;;;27.38888888888889;100.0
64862;BME280;62652;42.274;-71.436;2023-07-16T01:07:04;100740.0;;;27.5;100.0
64862;BME280;62652;42.274;-71.436;2023-07-16T01:08:06;100740.0;;;27.38888888888889;100.0
64862;BME280;62652;42.274;-71.436;2023-07-16T01:09:03;100740.0;;;27.38888888888889;100.0
64862;BME280;62652;42.274;-71.436;2023-07-16T01:10:01;100730.0;;;27.38888888888889;100.0
64862;BME280;62652;42.274;-71.436;2023-07-16T01:11:01;100740.0;;;27.38888888888889;100.0
64862;BME280;62652;42.274;-71.436;2023-07-16T01:12:01;100740.0;;;27.38888888888889;100.0
64862;BME280;62652;42.274;-71.436;2023-07-16T01:13:01;100740.0;;;27.38888888888889;100.0
64862;BME280;62652;42.274;-71.436;2023-07-16T01:14:01;100740.0;;;27.38888888888889;100.0
64862;BME280;62652;42.274;-71.436;2023-07-16T01:15:01;100750.0;;;27.38888888888889;100.0
64862;BME280;62652;42.274;-71.436;2023-07-16T01:16:02;100740.0;;;27.38888888888889;100.0
64862;BME280;62652;42.274;-71.436;2023-07-16T01:17:03;100750.0;;;27.277777777777775;100.0
64862;BME280;62652;42.274;-71.436;2023-07-16T01:18:01;100750.0;;;27.277777777777775;100.0
64862;BME280;62652;42.274;-71.436;2023-07-16T01:19:01;100750.0;;;27.22222222222222;100.0
64862;BME280;62652;42.274;-71.436;2023-07-16T01:20:01;100750.0;;;27.22222222222222;100.0
64862;BME280;62652;42.274;-71.436;2023-07-16T01:21:01;100750.0;;;27.22222222222222;100.0
64862;BME280;62652;42.274;-71.436;2023-07-16T01:22:14;100750.0;;;27.22222222222222;100.0
64862;BME280;62652;42.274;-71.436;2023-07-16T01:23:12;100750.0;;;27.11111111111111;100.0
64862;BME280;62652;42.274;-71.436;2023-07-16T01:24:15;100750.0;;;27.11111111111111;100.0
64862;BME280;62652;42.274;-71.436;2023-07-16T01:25:10;100750.0;;;27.11111111111111;100.0
64862;BME280;62652;42.274;-71.436;2023-07-16T01:26:18;100760.0;;;27.11111111111111;100.0
64862;BME280;62652;42.274;-71.436;2023-07-16T01:27:17;100760.0;;;27.11111111111111;100.0
64862;BME280;62652;42.274;-71.436;2023-07-16T01:28:11;100760.0;;;27.11111111111111;100.0
64862;BME280;62652;42.274;-71.436;2023-07-16T01:29:16;100770.0;;;27.11111111111111;100.0
64862;BME280;62652;42.274;-71.436;2023-07-16T01:30:02;100770.0;;;27.11111111111111;100.0
64862;BME280;62652;42.274;-71.436;2023-07-16T01:31:01;100770.0;;;27.11111111111111;100.0
64862;BME280;62652;42.274;-71.436;2023-07-16T01:32:03;100780.0;;;26.999999999999996;100.0
64862;BME280;62652;42.274;-71.436;2023-07-16T01:33:01;100770.0;;;26.999999999999996;100.0
64862;BME280;62652;42.274;-71.436;2023-07-16T01:34:04;100780.0;;;26.999999999999996;100.0
64862;BME280;62652;42.274;-71.436;2023-07-16T01:35:02;100770.0;;;26.999999999999996;100.0
64862;BME280;62652;42.274;-71.436;2023-07-16T01:36:02;100780.0;;;26.999999999999996;100.0
64862;BME280;62652;42.274;-71.436;2023-07-16T01:37:02;100770.0;;;26.999999999999996;100.0
64862;BME280;62652;42.274;-71.436;2023-07-16T01:38:00;100770.0;;;26.888888888888893;100.0
64862;BME280;62652;42.274;-71.436;2023-07-16T01:39:01;100770.0;;;26.999999999999996;100.0
64862;BME280;62652;42.274;-71.436;2023-07-16T01:40:01;100770.0;;;26.999999999999996;100.0
64862;BME280;62652;42.274;-71.436;2023-07-16T01:41:00;100770.0;;;26.999999999999996;100.0
64862;BME280;62652;42.274;-71.436;2023-07-16T01:42:01;100770.0;;;26.888888888888893;100.0
64862;BME280;62652;42.274;-71.436;2023-07-16T01:43:01;100770.0;;;26.999999999999996;100.0
64862;BME280;62652;42.274;-71.436;2023-07-16T01:44:00;100770.0;;;26.999999999999996;100.0
64862;BME280;62652;42.274;-71.436;2023-07-16T01:45:01;100780.0;;;26.999999999999996;100.0
64862;BME280;62652;42.274;-71.436;2023-07-16T01:46:00;100780.0;;;26.999999999999996;100.0
64862;BME280;62652;42.274;-71.436;2023-07-16T01:47:06;100780.0;;;26.999999999999996;100.0
64862;BME280;62652;42.274;-71.436;2023-07-16T01:48:11;100780.0;;;26.999999999999996;100.0
64862;BME280;62652;42.274;-71.436;2023-07-16T01:49:00;100780.0;;;26.999999999999996;100.0
64862;BME280;62652;42.274;-71.436;2023-07-16T01:50:01;100780.0;;;26.999999999999996;100.0
64862;BME280;62652;42.274;-71.436;2023-07-16T01:51:01;100780.0;;;26.999999999999996;100.0
64862;BME280;62652;42.274;-71.436;2023-07-16T01:52:02;100780.0;;;26.999999999999996;100.0
64862;BME280;62652;42.274;-71.436;2023-07-16T01:53:00;100780.0;;;27.11111111111111;100.0
64862;BME280;62652;42.274;-71.436;2023-07-16T01:54:01;100780.0;;;26.999999999999996;100.0
64862;BME280;62652;42.274;-71.436;2023-07-16T01:55:01;100790.0;;;26.999999999999996;100.0
64862;BME280;62652;42.274;-71.436;2023-07-16T01:56:01;100790.0;;;26.999999999999996;100.0
64862;BME280;62652;42.274;-71.436;2023-07-16T01:57:00;100790.0;;;26.999999999999996;100.0
64862;BME280;62652;42.274;-71.436;2023-07-16T01:58:00;100790.0;;;26.999999999999996;100.0
64862;BME280;62652;42.274;-71.436;2023-07-16T01:59:01;100790.0;;;26.999999999999996;100.0
64862;BME280;62652;42.274;-71.436;2023-07-16T02:00:00;100780.0;;;26.999999999999996;100.0
64862;BME280;62652;42.274;-71.436;2023-07-16T02:01:00;100780.0;;;26.999999999999996;100.0
64862;BME280;62652;42.274;-71.436;2023-07-16T02:02:00;100780.0;;;26.999999999999996;100.0
64862;BME280;62652;42.274;-71.436;2023-07-16T02:03:01;100770.0;;;26.999999999999996;100.0
64862;BME280;62652;42.274;-71.436;2023-07-16T02:04:01;100770.0;;;26.999999999999996;100.0
64862;BME280;62652;42.274;-71.436;2023-07-16T02:05:01;100770.0;;;26.999999999999996;100.0
64862;BME280;62652;42.274;-71.436;2023-07-16T02:06:00;100770.0;;;26.888888888888893;100.0
64862;BME280;62652;42.274;-71.436;2023-07-16T02:07:01;100760.0;;;26.888888888888893;100.0
64862;BME280;62652;42.274;-71.436;2023-07-16T02:08:01;100770.0;;;26.888888888888893;100.0
64862;BME280;62652;42.274;-71.436;2023-07-16T02:09:01;100770.0;;;26.77777777777778;100.0
64862;BME280;62652;42.274;-71.436;2023-07-16T02:10:01;100760.0;;;26.77777777777778;100.0
64862;BME280;62652;42.274;-71.436;2023-07-16T02:11:00;100760.0;;;26.888888888888893;100.0
64862;BME280;62652;42.274;-71.436;2023-07-16T02:12:01;100760.0;;;26.77777777777778;100.0
64862;BME280;62652;42.274;-71.436;2023-07-16T02:13:01;100770.0;;;26.888888888888893;100.0
64862;BME280;62652;42.274;-71.436;2023-07-16T02:14:00;100760.0;;;26.888888888888893;100.0
64862;BME280;62652;42.274;-71.436;2023-07-16T02:15:01;100770.0;;;26.888888888888893;100.0
64862;BME280;62652;42.274;-71.436;2023-07-16T02:16:01;100770.0;;;26.888888888888893;100.0
64862;BME280;62652;42.274;-71.436;2023-07-16T02:17:00;100770.0;;;26.77777777777778;100.0
64862;BME280;62652;42.274;-71.436;2023-07-16T02:18:01;100770.0;;;26.77777777777778;100.0
64862;BME280;62652;42.274;-71.436;2023-07-16T02:19:00;100770.0;;;26.77777777777778;100.0
64862;BME280;62652;42.274;-71.436;2023-07-16T02:20:01;100770.0;;;26.77777777777778;100.0
64862;BME280;62652;42.274;-71.436;2023-07-16T02:21:01;100770.0;;;26.722222222222218;100.0
64862;BME280;62652;42.274;-71.436;2023-07-16T02:22:01;100770.0;;;26.722222222222218;100.0
64862;BME280;62652;42.274;-71.436;2023-07-16T02:23:00;100770.0;;;26.722222222222218;100.0
64862;BME280;62652;42.274;-71.436;2023-07-16T02:24:00;100780.0;;;26.611111111111114;100.0
64862;BME280;62652;42.274;-71.436;2023-07-16T02:25:01;100770.0;;;26.722222222222218;100.0
64862;BME280;62652;42.274;-71.436;2023-07-16T02:26:01;100780.0;;;26.722222222222218;100.0
64862;BME280;62652;42.274;-71.436;2023-07-16T02:27:01;100770.0;;;26.722222222222218;100.0
64862;BME280;62652;42.274;-71.436;2023-07-16T02:28:01;100780.0;;;26.722222222222218;100.0
64862;BME280;62652;42.274;-71.436;2023-07-16T02:29:01;100780.0;;;26.722222222222218;100.0
64862;BME280;62652;42.274;-71.436;2023-07-16T02:30:01;100780.0;;;26.722222222222218;100.0
64862;BME280;62652;42.274;-71.436;2023-07-16T02:31:02;100770.0;;;26.722222222222218;100.0
64862;BME280;62652;42.274;-71.436;2023-07-16T02:32:01;100770.0;;;26.722222222222218;100.0
64862;BME280;62652;42.274;-71.436;2023-07-16T02:33:01;100770.0;;;26.722222222222218;100.0
64862;BME280;62652;42.274;-71.436;2023-07-16T02:34:00;100770.0;;;26.722222222222218;100.0
64862;BME280;62652;42.274;-71.436;2023-07-16T02:35:01;100770.0;;;26.611111111111114;100.0
64862;BME280;62652;42.274;-71.436;2023-07-16T02:36:00;100770.0;;;26.611111111111114;100.0
64862;BME280;62652;42.274;-71.436;2023-07-16T02:37:00;100770.0;;;26.611111111111114;100.0
64862;BME280;62652;42.274;-71.436;2023-07-16T02:38:01;100780.0;;;26.611111111111114;100.0
64862;BME280;62652;42.274;-71.436;2023-07-16T02:39:00;100780.0;;;26.611111111111114;100.0
64862;BME280;62652;42.274;-71.436;2023-07-16T02:40:01;100780.0;;;26.5;100.0
64862;BME280;62652;42.274;-71.436;2023-07-16T02:41:01;100780.0;;;26.5;100.0
64862;BME280;62652;42.274;-71.436;2023-07-16T02:42:01;100780.0;;;26.5;100.0
64862;BME280;62652;42.274;-71.436;2023-07-16T02:43:00;100780.0;;;26.5;100.0
64862;BME280;62652;42.274;-71.436;2023-07-16T02:44:04;100780.0;;;26.611111111111114;100.0
64862;BME280;62652;42.274;-71.436;2023-07-16T02:45:01;100780.0;;;26.5;100.0
64862;BME280;62652;42.274;-71.436;2023-07-16T02:46:00;100780.0;;;26.611111111111114;100.0
64862;BME280;62652;42.274;-71.436;2023-07-16T02:47:00;100780.0;;;26.5;100.0
64862;BME280;62652;42.274;-71.436;2023-07-16T02:48:01;100780.0;;;26.611111111111114;100.0
64862;BME280;62652;42.274;-71.436;2023-07-16T02:49:02;100780.0;;;26.611111111111114;100.0
64862;BME280;62652;42.274;-71.436;2023-07-16T02:50:01;100780.0;;;26.611111111111114;100.0
64862;BME280;62652;42.274;-71.436;2023-07-16T02:51:00;100770.0;;;26.611111111111114;100.0
64862;BME280;62652;42.274;-71.436;2023-07-16T02:52:01;100770.0;;;26.611111111111114;100.0
64862;BME280;62652;42.274;-71.436;2023-07-16T02:53:00;100770.0;;;26.611111111111114;100.0
64862;BME280;62652;42.274;-71.436;2023-07-16T02:54:01;100760.0;;;26.611111111111114;100.0
64862;BME280;62652;42.274;-71.436;2023-07-16T02:55:00;100760.0;;;26.611111111111114;100.0
64862;BME280;62652;42.274;-71.436;2023-07-16T02:56:00;100760.0;;;26.611111111111114;100.0
64862;BME280;62652;42.274;-71.436;2023-07-16T02:57:01;100760.0;;;26.611111111111114;100.0
64862;BME280;62652;42.274;-71.436;2023-07-16T02:58:01;100760.0;;;26.611111111111114;100.0
64862;BME280;62652;42.274;-71.436;2023-07-16T02:59:01;100770.0;;;26.611111111111114;100.0
64862;BME280;62652;42.274;-71.436;2023-07-16T03:00:00;100770.0;;;26.611111111111114;100.0
64862;BME280;62652;42.274;-71.436;2023-07-16T03:01:00;100770.0;;;26.611111111111114;100.0
64862;BME280;62652;42.274;-71.436;2023-07-16T03:02:01;100770.0;;;26.611111111111114;100.0
64862;BME280;62652;42.274;-71.436;2023-07-16T03:03:00;100770.0;;;26.611111111111114;100.0
64862;BME280;62652;42.274;-71.436;2023-07-16T03:04:00;100770.0;;;26.611111111111114;100.0
64862;BME280;62652;42.274;-71.436;2023-07-16T03:05:02;100760.0;;;26.611111111111114;100.0
64862;BME280;62652;42.274;-71.436;2023-07-16T03:06:00;100770.0;;;26.611111111111114;100.0
64862;BME280;62652;42.274;-71.436;2023-07-16T03:07:01;100770.0;;;26.611111111111114;100.0
64862;BME280;62652;42.274;-71.436;2023-07-16T03:08:01;100770.0;;;26.5;100.0
64862;BME280;62652;42.274;-71.436;2023-07-16T03:09:01;100760.0;;;26.5;100.0
64862;BME280;62652;42.274;-71.436;2023-07-16T03:10:01;100770.0;;;26.38888888888889;100.0
64862;BME280;62652;42.274;-71.436;2023-07-16T03:11:01;100770.0;;;26.38888888888889;100.0
64862;BME280;62652;42.274;-71.436;2023-07-16T03:12:00;100770.0;;;26.38888888888889;100.0
64862;BME280;62652;42.274;-71.436;2023-07-16T03:13:00;100770.0;;;26.38888888888889;100.0
64862;BME280;62652;42.274;-71.436;2023-07-16T03:14:00;100770.0;;;26.38888888888889;100.0
64862;BME280;62652;42.274;-71.436;2023-07-16T03:15:01;100770.0;;;26.38888888888889;100.0
64862;BME280;62652;42.274;-71.436;2023-07-16T03:16:01;100770.0;;;26.5;100.0
64862;BME280;62652;42.274;-71.436;2023-07-16T03:17:00;100770.0;;;26.5;100.0
64862;BME280;62652;42.274;-71.436;2023-07-16T03:18:01;100770.0;;;26.5;100.0
64862;BME280;62652;42.274;-71.436;2023-07-16T03:19:00;100770.0;;;26.5;100.0
64862;BME280;62652;42.274;-71.436;2023-07-16T03:20:01;100770.0;;;26.5;100.0
64862;BME280;62652;42.274;-71.436;2023-07-16T03:21:00;100780.0;;;26.5;100.0
64862;BME280;62652;42.274;-71.436;2023-07-16T03:22:01;100780.0;;;26.5;100.0
64862;BME280;62652;42.274;-71.436;2023-07-16T03:23:00;100780.0;;;26.5;100.0
64862;BME280;62652;42.274;-71.436;2023-07-16T03:24:01;100780.0;;;26.5;100.0
64862;BME280;62652;42.274;-71.436;2023-07-16T03:25:01;100780.0;;;26.5;100.0
64862;BME280;62652;42.274;-71.436;2023-07-16T03:26:00;100780.0;;;26.5;100.0
64862;BME280;62652;42.274;-71.436;2023-07-16T03:27:01;100780.0;;;26.5;100.0
64862;BME280;62652;42.274;-71.436;2023-07-16T03:28:00;100780.0;;;26.5;100.0
64862;BME280;62652;42.274;-71.436;2023-07-16T03:29:01;100780.0;;;26.5;100.0
64862;BME280;62652;42.274;-71.436;2023-07-16T03:30:01;100790.0;;;26.5;100.0
64862;BME280;62652;42.274;-71.436;2023-07-16T03:31:01;100790.0;;;26.5;100.0
64862;BME280;62652;42.274;-71.436;2023-07-16T03:32:01;100790.0;;;26.5;100.0
64862;BME280;62652;42.274;-71.436;2023-07-16T03:33:00;100790.0;;;26.5;100.0
64862;BME280;62652;42.274;-71.436;2023-07-16T03:34:00;100790.0;;;26.38888888888889;100.0
64862;BME280;62652;42.274;-71.436;2023-07-16T03:35:01;100780.0;;;26.38888888888889;100.0
64862;BME280;62652;42.274;-71.436;2023-07-16T03:36:00;100780.0;;;26.38888888888889;100.0
64862;BME280;62652;42.274;-71.436;2023-07-16T03:37:00;100780.0;;;26.38888888888889;100.0
64862;BME280;62652;42.274;-71.436;2023-07-16T03:38:01;100780.0;;;26.38888888888889;100.0
64862;BME280;62652;42.274;-71.436;2023-07-16T03:39:00;100790.0;;;26.38888888888889;100.0
64862;BME280;62652;42.274;-71.436;2023-07-16T03:40:13;100780.0;;;26.27777777777778;100.0
64862;BME280;62652;42.274;-71.436;2023-07-16T03:41:01;100780.0;;;26.27777777777778;100.0
64862;BME280;62652;42.274;-71.436;2023-07-16T03:42:00;100780.0;;;26.27777777777778;100.0
64862;BME280;62652;42.274;-71.436;2023-07-16T03:43:00;100780.0;;;26.27777777777778;100.0
64862;BME280;62652;42.274;-71.436;2023-07-16T03:44:01;100790.0;;;26.27777777777778;100.0
64862;BME280;62652;42.274;-71.436;2023-07-16T03:45:00;100790.0;;;26.27777777777778;100.0
64862;BME280;62652;42.274;-71.436;2023-07-16T03:46:01;100790.0;;;26.27777777777778;100.0
64862;BME280;62652;42.274;-71.436;2023-07-16T03:47:00;100790.0;;;26.22222222222222;100.0
64862;BME280;62652;42.274;-71.436;2023-07-16T03:48:00;100790.0;;;26.22222222222222;100.0
64862;BME280;62652;42.274;-71.436;2023-07-16T03:49:01;100790.0;;;26.22222222222222;100.0
64862;BME280;62652;42.274;-71.436;2023-07-16T03:50:00;100790.0;;;26.22222222222222;100.0
64862;BME280;62652;42.274;-71.436;2023-07-16T03:51:01;100790.0;;;26.22222222222222;100.0
64862;BME280;62652;42.274;-71.436;2023-07-16T03:52:01;100790.0;;;26.22222222222222;100.0
64862;BME280;62652;42.274;-71.436;2023-07-16T03:53:01;100790.0;;;26.22222222222222;100.0
64862;BME280;62652;42.274;-71.436;2023-07-16T03:54:00;100790.0;;;26.22222222222222;100.0
64862;BME280;62652;42.274;-71.436;2023-07-16T03:55:01;100790.0;;;26.22222222222222;100.0
64862;BME280;62652;42.274;-71.436;2023-07-16T03:56:01;100780.0;;;26.22222222222222;100.0
64862;BME280;62652;42.274;-71.436;2023-07-16T03:57:00;100780.0;;;26.22222222222222;100.0
64862;BME280;62652;42.274;-71.436;2023-07-16T03:58:00;100780.0;;;26.22222222222222;100.0
64862;BME280;62652;42.274;-71.436;2023-07-16T03:59:01;100780.0;;;26.22222222222222;100.0
64862;BME280;62652;42.274;-71.436;2023-07-16T04:00:01;100780.0;;;26.22222222222222;100.0
64862;BME280;62652;42.274;-71.436;2023-07-16T04:01:00;100780.0;;;26.22222222222222;100.0
64862;BME280;62652;42.274;-71.436;2023-07-16T04:02:00;100780.0;;;26.22222222222222;100.0
64862;BME280;62652;42.274;-71.436;2023-07-16T04:03:01;100780.0;;;26.22222222222222;100.0
64862;BME280;62652;42.274;-71.436;2023-07-16T04:04:01;100780.0;;;26.22222222222222;100.0
64862;BME280;62652;42.274;-71.436;2023-07-16T04:05:01;100780.0;;;26.22222222222222;100.0
64862;BME280;62652;42.274;-71.436;2023-07-16T04:06:01;100780.0;;;26.22222222222222;100.0
64862;BME280;62652;42.274;-71.436;2023-07-16T04:07:00;100780.0;;;26.22222222222222;100.0
64862;BME280;62652;42.274;-71.436;2023-07-16T04:08:00;100780.0;;;26.22222222222222;100.0
64862;BME280;62652;42.274;-71.436;2023-07-16T04:09:01;100780.0;;;26.22222222222222;100.0
64862;BME280;62652;42.274;-71.436;2023-07-16T04:10:01;100780.0;;;26.22222222222222;100.0
64862;BME280;62652;42.274;-71.436;2023-07-16T04:11:01;100770.0;;;26.22222222222222;100.0
64862;BME280;62652;42.274;-71.436;2023-07-16T04:12:00;100770.0;;;26.22222222222222;100.0
64862;BME280;62652;42.274;-71.436;2023-07-16T04:13:01;100760.0;;;26.22222222222222;100.0
64862;BME280;62652;42.274;-71.436;2023-07-16T04:14:00;100760.0;;;26.22222222222222;100.0
64862;BME280;62652;42.274;-71.436;2023-07-16T04:15:01;100760.0;;;26.22222222222222;100.0
64862;BME280;62652;42.274;-71.436;2023-07-16T04:16:01;100760.0;;;26.22222222222222;100.0
64862;BME280;62652;42.274;-71.436;2023-07-16T04:17:01;100760.0;;;26.22222222222222;100.0
64862;BME280;62652;42.274;-71.436;2023-07-16T04:18:01;100760.0;;;26.22222222222222;100.0
64862;BME280;62652;42.274;-71.436;2023-07-16T04:19:00;100760.0;;;26.22222222222222;100.0
64862;BME280;62652;42.274;-71.436;2023-07-16T04:20:01;100760.0;;;26.22222222222222;100.0
64862;BME280;62652;42.274;-71.436;2023-07-16T04:21:01;100760.0;;;26.22222222222222;100.0
64862;BME280;62652;42.274;-71.436;2023-07-16T04:22:01;100760.0;;;26.22222222222222;100.0
64862;BME280;62652;42.274;-71.436;2023-07-16T04:23:01;100760.0;;;26.22222222222222;100.0
64862;BME280;62652;42.274;-71.436;2023-07-16T04:24:01;100760.0;;;26.22222222222222;100.0
64862;BME280;62652;42.274;-71.436;2023-07-16T04:25:00;100760.0;;;26.22222222222222;100.0
64862;BME280;62652;42.274;-71.436;2023-07-16T04:26:01;100760.0;;;26.22222222222222;100.0
64862;BME280;62652;42.274;-71.436;2023-07-16T04:27:00;100760.0;;;26.22222222222222;100.0
64862;BME280;62652;42.274;-71.436;2023-07-16T04:28:01;100760.0;;;26.27777777777778;100.0
64862;BME280;62652;42.274;-71.436;2023-07-16T04:29:00;100760.0;;;26.22222222222222;100.0
64862;BME280;62652;42.274;-71.436;2023-07-16T04:30:01;100760.0;;;26.27777777777778;100.0